sensor_id;sensor_type;location;lat;lon;timestamp;pressure;altitude;pressure_sealevel;temperature;humidity
11124;BME280;5616;42.692;23.312;2023-05-23T00:01:37;95002.59;;;13.43;100.00
11124;BME280;5616;42.692;23.312;2023-05-23T00:04:04;94992.63;;;13.40;100.00
11124;BME280;5616;42.692;23.312;2023-05-23T00:06:31;94982.25;;;13.27;100.00
11124;BME280;5616;42.692;23.312;2023-05-23T00:08:58;94990.25;;;13.32;100.00
11124;BME280;5616;42.692;23.312;2023-05-23T00:11:25;94999.59;;;13.46;100.00
11124;BME280;5616;42.692;23.312;2023-05-23T00:13:55;95002.38;;;13.52;100.00
11124;BME280;5616;42.692;23.312;2023-05-23T00:16:25;95001.22;;;13.34;100.00
11124;BME280;5616;42.692;23.312;2023-05-23T00:18:52;94992.44;;;13.29;100.00
11124;BME280;5616;42.692;23.312;2023-05-23T00:21:21;94992.03;;;13.38;100.00
11124;BME280;5616;42.692;23.312;2023-05-23T00:23:48;94992.63;;;13.34;100.00
11124;BME280;5616;42.692;23.312;2023-05-23T00:26:15;94984.25;;;13.25;100.00
11124;BME280;5616;42.692;23.312;2023-05-23T00:28:45;94983.25;;;13.33;100.00
11124;BME280;5616;42.692;23.312;2023-05-23T00:31:13;94991.63;;;13.41;100.00
11124;BME280;5616;42.692;23.312;2023-05-23T00:33:40;94992.22;;;13.50;100.00
11124;BME280;5616;42.692;23.312;2023-05-23T00:36:06;94999.22;;;13.56;100.00
11124;BME280;5616;42.692;23.312;2023-05-23T00:38:33;94996.41;;;13.31;100.00
11124;BME280;5616;42.692;23.312;2023-05-23T00:41:00;94990.63;;;13.23;100.00
11124;BME280;5616;42.692;23.312;2023-05-23T00:43:27;94990.25;;;13.19;100.00
11124;BME280;5616;42.692;23.312;2023-05-23T00:45:54;94988.63;;;13.18;100.00
11124;BME280;5616;42.692;23.312;2023-05-23T00:48:23;94994.16;;;13.02;100.00
11124;BME280;5616;42.692;23.312;2023-05-23T00:50:51;94986.59;;;13.01;100.00
11124;BME280;5616;42.692;23.312;2023-05-23T00:53:18;94991.38;;;12.97;100.00
11124;BME280;5616;42.692;23.312;2023-05-23T00:55:44;94992.16;;;12.91;100.00
11124;BME280;5616;42.692;23.312;2023-05-23T00:58:12;94989.41;;;13.06;100.00
11124;BME280;5616;42.692;23.312;2023-05-23T01:00:41;94995.81;;;13.16;100.00
11124;BME280;5616;42.692;23.312;2023-05-23T01:03:09;94991.19;;;13.05;100.00
11124;BME280;5616;42.692;23.312;2023-05-23T01:05:43;94992.16;;;12.91;100.00
11124;BME280;5616;42.692;23.312;2023-05-23T01:08:10;95001.53;;;12.92;100.00
11124;BME280;5616;42.692;23.312;2023-05-23T01:10:37;94988.63;;;13.58;100.00
11124;BME280;5616;42.692;23.312;2023-05-23T01:13:12;94997.94;;;13.91;100.00
11124;BME280;5616;42.692;23.312;2023-05-23T01:15:49;94992.91;;;14.09;100.00
11124;BME280;5616;42.692;23.312;2023-05-23T01:18:21;94993.53;;;14.12;100.00
11124;BME280;5616;42.692;23.312;2023-05-23T01:20:54;94993.78;;;13.90;100.00
11124;BME280;5616;42.692;23.312;2023-05-23T01:23:39;94992.81;;;13.59;100.00
11124;BME280;5616;42.692;23.312;2023-05-23T01:26:31;94989.44;;;13.32;100.00
11124;BME280;5616;42.692;23.312;2023-05-23T01:29:06;94997.00;;;13.07;100.00
11124;BME280;5616;42.692;23.312;2023-05-23T01:31:36;94994.75;;;12.91;100.00
11124;BME280;5616;42.692;23.312;2023-05-23T01:34:06;94994.34;;;12.87;100.00
11124;BME280;5616;42.692;23.312;2023-05-23T01:36:33;95000.31;;;12.81;100.00
11124;BME280;5616;42.692;23.312;2023-05-23T01:39:01;94999.91;;;12.91;100.00
11124;BME280;5616;42.692;23.312;2023-05-23T01:41:28;94996.56;;;12.91;100.00
11124;BME280;5616;42.692;23.312;2023-05-23T01:43:54;94992.94;;;12.92;100.00
11124;BME280;5616;42.692;23.312;2023-05-23T01:46:23;94988.56;;;12.92;100.00
11124;BME280;5616;42.692;23.312;2023-05-23T01:48:52;94992.94;;;12.78;100.00
11124;BME280;5616;42.692;23.312;2023-05-23T01:51:21;94984.34;;;12.78;100.00
11124;BME280;5616;42.692;23.312;2023-05-23T01:53:48;94982.56;;;12.78;100.00
11124;BME280;5616;42.692;23.312;2023-05-23T01:56:15;94975.63;;;12.92;100.00
11124;BME280;5616;42.692;23.312;2023-05-23T01:58:43;94983.00;;;13.02;100.00
11124;BME280;5616;42.692;23.312;2023-05-23T02:01:10;94977.63;;;12.90;100.00
11124;BME280;5616;42.692;23.312;2023-05-23T02:03:38;94972.94;;;12.59;100.00
11124;BME280;5616;42.692;23.312;2023-05-23T02:06:05;94981.72;;;12.65;100.00
11124;BME280;5616;42.692;23.312;2023-05-23T02:08:33;94979.34;;;12.70;100.00
11124;BME280;5616;42.692;23.312;2023-05-23T02:11:01;94986.13;;;12.77;100.00
11124;BME280;5616;42.692;23.312;2023-05-23T02:13:28;94990.72;;;12.75;100.00
11124;BME280;5616;42.692;23.312;2023-05-23T02:15:55;94985.53;;;12.69;100.00
11124;BME280;5616;42.692;23.312;2023-05-23T02:18:22;94990.50;;;12.64;100.00
11124;BME280;5616;42.692;23.312;2023-05-23T02:20:52;94985.94;;;12.66;100.00
11124;BME280;5616;42.692;23.312;2023-05-23T02:23:19;94982.56;;;12.72;100.00
11124;BME280;5616;42.692;23.312;2023-05-23T02:25:45;94986.31;;;12.63;100.00
11124;BME280;5616;42.692;23.312;2023-05-23T02:28:12;94985.31;;;12.64;100.00
11124;BME280;5616;42.692;23.312;2023-05-23T02:30:39;94976.00;;;12.82;100.00
11124;BME280;5616;42.692;23.312;2023-05-23T02:33:06;94976.59;;;12.91;100.00
11124;BME280;5616;42.692;23.312;2023-05-23T02:35:33;94979.00;;;12.99;100.00
11124;BME280;5616;42.692;23.312;2023-05-23T02:38:01;94975.84;;;13.10;100.00
11124;BME280;5616;42.692;23.312;2023-05-23T02:40:28;94976.66;;;13.11;100.00
11124;BME280;5616;42.692;23.312;2023-05-23T02:42:55;94974.06;;;13.17;100.00
11124;BME280;5616;42.692;23.312;2023-05-23T02:45:22;94975.88;;;13.23;100.00
11124;BME280;5616;42.692;23.312;2023-05-23T02:47:49;94974.63;;;13.00;100.00
11124;BME280;5616;42.692;23.312;2023-05-23T02:50:16;94969.88;;;13.10;100.00
11124;BME280;5616;42.692;23.312;2023-05-23T02:52:43;94969.44;;;13.00;100.00
11124;BME280;5616;42.692;23.312;2023-05-23T02:55:11;94970.25;;;13.00;100.00
11124;BME280;5616;42.692;23.312;2023-05-23T02:57:42;94967.25;;;12.97;100.00
11124;BME280;5616;42.692;23.312;2023-05-23T03:00:09;94975.44;;;13.00;100.00
11124;BME280;5616;42.692;23.312;2023-05-23T03:02:37;94976.84;;;13.09;100.00
11124;BME280;5616;42.692;23.312;2023-05-23T03:05:05;94974.06;;;13.17;100.00
11124;BME280;5616;42.692;23.312;2023-05-23T03:07:32;94973.28;;;13.30;100.00
11124;BME280;5616;42.692;23.312;2023-05-23T03:09:59;94974.69;;;13.32;100.00
11124;BME280;5616;42.692;23.312;2023-05-23T03:12:28;94970.47;;;13.44;100.00
11124;BME280;5616;42.692;23.312;2023-05-23T03:14:55;94970.66;;;13.49;100.00
11124;BME280;5616;42.692;23.312;2023-05-23T03:17:24;94975.06;;;13.29;100.00
11124;BME280;5616;42.692;23.312;2023-05-23T03:19:51;94976.66;;;13.30;100.00
11124;BME280;5616;42.692;23.312;2023-05-23T03:22:18;94975.66;;;13.44;100.00
11124;BME280;5616;42.692;23.312;2023-05-23T03:24:45;94973.25;;;13.49;100.00
11124;BME280;5616;42.692;23.312;2023-05-23T03:27:11;94974.88;;;13.51;100.00
11124;BME280;5616;42.692;23.312;2023-05-23T03:29:39;94978.25;;;13.58;100.00
11124;BME280;5616;42.692;23.312;2023-05-23T03:32:06;94982.66;;;13.51;100.00
11124;BME280;5616;42.692;23.312;2023-05-23T03:34:33;94978.66;;;13.55;100.00
11124;BME280;5616;42.692;23.312;2023-05-23T03:37:02;94989.84;;;13.62;100.00
11124;BME280;5616;42.692;23.312;2023-05-23T03:39:29;94993.81;;;13.64;100.00
11124;BME280;5616;42.692;23.312;2023-05-23T03:41:56;94995.00;;;13.68;100.00
11124;BME280;5616;42.692;23.312;2023-05-23T03:44:23;94996.22;;;13.39;100.00
11124;BME280;5616;42.692;23.312;2023-05-23T03:46:51;94999.03;;;13.51;100.00
11124;BME280;5616;42.692;23.312;2023-05-23T03:49:18;94993.81;;;13.64;100.00
11124;BME280;5616;42.692;23.312;2023-05-23T03:51:45;94999.97;;;13.70;100.00
11124;BME280;5616;42.692;23.312;2023-05-23T03:54:14;95001.78;;;13.76;100.00
11124;BME280;5616;42.692;23.312;2023-05-23T03:56:41;95007.00;;;13.69;100.00
11124;BME280;5616;42.692;23.312;2023-05-23T03:59:08;95003.41;;;13.64;100.00
11124;BME280;5616;42.692;23.312;2023-05-23T04:01:35;95009.38;;;13.77;100.00
11124;BME280;5616;42.692;23.312;2023-05-23T04:04:04;95005.56;;;13.80;100.00
11124;BME280;5616;42.692;23.312;2023-05-23T04:06:34;94995.19;;;13.80;100.00
11124;BME280;5616;42.692;23.312;2023-05-23T04:09:01;94995.22;;;13.60;100.00
11124;BME280;5616;42.692;23.312;2023-05-23T04:11:29;95000.63;;;13.45;100.00
11124;BME280;5616;42.692;23.312;2023-05-23T04:13:56;95003.81;;;13.47;100.00
11124;BME280;5616;42.692;23.312;2023-05-23T04:16:23;95003.19;;;13.59;100.00
11124;BME280;5616;42.692;23.312;2023-05-23T04:18:50;94991.41;;;13.69;100.00
11124;BME280;5616;42.692;23.312;2023-05-23T04:21:18;94990.41;;;13.70;100.00
11124;BME280;5616;42.692;23.312;2023-05-23T04:24:00;95001.19;;;13.74;100.00
11124;BME280;5616;42.692;23.312;2023-05-23T04:26:27;95001.78;;;13.76;100.00
11124;BME280;5616;42.692;23.312;2023-05-23T04:28:54;95000.19;;;13.88;100.00
11124;BME280;5616;42.692;23.312;2023-05-23T04:31:21;95007.53;;;13.91;100.00
11124;BME280;5616;42.692;23.312;2023-05-23T04:33:47;95001.94;;;13.94;100.00
11124;BME280;5616;42.692;23.312;2023-05-23T04:36:18;95005.97;;;13.90;100.00
11124;BME280;5616;42.692;23.312;2023-05-23T04:38:50;95009.94;;;13.86;100.00
11124;BME280;5616;42.692;23.312;2023-05-23T04:41:17;95007.34;;;13.86;100.00
11124;BME280;5616;42.692;23.312;2023-05-23T04:44:06;95010.78;;;13.80;100.00
11124;BME280;5616;42.692;23.312;2023-05-23T04:46:53;95016.53;;;13.75;100.00
11124;BME280;5616;42.692;23.312;2023-05-23T04:49:26;95024.94;;;13.77;100.00
11124;BME280;5616;42.692;23.312;2023-05-23T04:51:55;95017.94;;;13.78;100.00
11124;BME280;5616;42.692;23.312;2023-05-23T04:54:29;95028.34;;;13.71;100.00
11124;BME280;5616;42.692;23.312;2023-05-23T04:57:00;95025.34;;;13.74;100.00
11124;BME280;5616;42.692;23.312;2023-05-23T04:59:28;95024.13;;;13.70;100.00
11124;BME280;5616;42.692;23.312;2023-05-23T05:01:54;95018.75;;;13.72;100.00
11124;BME280;5616;42.692;23.312;2023-05-23T05:04:21;95025.13;;;13.76;100.00
11124;BME280;5616;42.692;23.312;2023-05-23T05:06:49;95024.13;;;13.83;100.00
11124;BME280;5616;42.692;23.312;2023-05-23T05:09:18;95023.94;;;13.65;100.00
11124;BME280;5616;42.692;23.312;2023-05-23T05:11:47;95026.34;;;13.60;100.00
11124;BME280;5616;42.692;23.312;2023-05-23T05:14:13;95032.94;;;13.56;100.00
11124;BME280;5616;42.692;23.312;2023-05-23T05:16:40;95041.91;;;13.67;100.00
11124;BME280;5616;42.692;23.312;2023-05-23T05:19:08;95044.50;;;13.80;100.00
11124;BME280;5616;42.692;23.312;2023-05-23T05:21:35;95042.88;;;13.72;100.00
11124;BME280;5616;42.692;23.312;2023-05-23T05:24:02;95036.72;;;13.34;100.00
11124;BME280;5616;42.692;23.312;2023-05-23T05:26:30;95036.31;;;13.57;100.00
11124;BME280;5616;42.692;23.312;2023-05-23T05:28:57;95039.53;;;13.72;100.00
11124;BME280;5616;42.692;23.312;2023-05-23T05:31:23;95040.72;;;13.82;100.00
11124;BME280;5616;42.692;23.312;2023-05-23T05:33:52;95035.31;;;13.90;99.79
11124;BME280;5616;42.692;23.312;2023-05-23T05:36:19;95031.72;;;13.85;100.00
11124;BME280;5616;42.692;23.312;2023-05-23T05:38:46;95043.06;;;13.97;99.25
11124;BME280;5616;42.692;23.312;2023-05-23T05:41:13;95044.06;;;14.02;98.75
11124;BME280;5616;42.692;23.312;2023-05-23T05:43:50;95046.44;;;14.10;98.97
11124;BME280;5616;42.692;23.312;2023-05-23T05:46:17;95041.22;;;14.17;98.90
11124;BME280;5616;42.692;23.312;2023-05-23T05:48:44;95038.41;;;14.25;97.76
11124;BME280;5616;42.692;23.312;2023-05-23T05:51:12;95036.81;;;14.31;96.95
11124;BME280;5616;42.692;23.312;2023-05-23T05:53:40;95046.00;;;14.33;96.40
11124;BME280;5616;42.692;23.312;2023-05-23T05:56:07;95047.41;;;14.42;96.88
11124;BME280;5616;42.692;23.312;2023-05-23T05:58:34;95049.00;;;14.43;98.10
11124;BME280;5616;42.692;23.312;2023-05-23T06:01:06;95040.78;;;14.53;97.05
11124;BME280;5616;42.692;23.312;2023-05-23T06:03:33;95046.09;;;14.71;96.02
11124;BME280;5616;42.692;23.312;2023-05-23T06:06:00;95048.56;;;14.97;95.29
11124;BME280;5616;42.692;23.312;2023-05-23T06:08:27;95044.09;;;15.11;94.47
11124;BME280;5616;42.692;23.312;2023-05-23T06:10:54;95048.25;;;15.18;95.06
11124;BME280;5616;42.692;23.312;2023-05-23T06:13:21;95043.94;;;15.30;95.36
11124;BME280;5616;42.692;23.312;2023-05-23T06:15:51;95048.56;;;15.60;93.71
11124;BME280;5616;42.692;23.312;2023-05-23T06:18:20;95045.59;;;15.81;91.69
11124;BME280;5616;42.692;23.312;2023-05-23T06:20:47;95048.19;;;16.06;89.03
11124;BME280;5616;42.692;23.312;2023-05-23T06:23:17;95051.34;;;16.32;87.97
11124;BME280;5616;42.692;23.312;2023-05-23T06:25:45;95023.47;;;16.33;86.27
11124;BME280;5616;42.692;23.312;2023-05-23T06:28:12;95051.72;;;16.54;85.62
11124;BME280;5616;42.692;23.312;2023-05-23T06:30:39;95055.41;;;16.65;85.11
11124;BME280;5616;42.692;23.312;2023-05-23T06:33:06;95056.00;;;16.96;85.30
11124;BME280;5616;42.692;23.312;2023-05-23T06:35:35;95050.66;;;17.51;82.90
11124;BME280;5616;42.692;23.312;2023-05-23T06:38:01;95051.63;;;18.26;79.05
11124;BME280;5616;42.692;23.312;2023-05-23T06:40:28;95040.81;;;19.53;75.16
11124;BME280;5616;42.692;23.312;2023-05-23T06:42:55;95045.97;;;20.70;69.95
11124;BME280;5616;42.692;23.312;2023-05-23T06:45:44;95041.38;;;21.57;65.82
11124;BME280;5616;42.692;23.312;2023-05-23T06:48:12;95041.50;;;22.36;61.90
11124;BME280;5616;42.692;23.312;2023-05-23T06:50:40;95036.78;;;23.00;59.32
11124;BME280;5616;42.692;23.312;2023-05-23T06:53:09;95030.00;;;23.24;58.67
11124;BME280;5616;42.692;23.312;2023-05-23T06:55:36;95029.03;;;22.68;59.16
11124;BME280;5616;42.692;23.312;2023-05-23T06:58:04;95033.84;;;22.34;59.63
11124;BME280;5616;42.692;23.312;2023-05-23T07:00:32;95025.56;;;23.35;57.50
11124;BME280;5616;42.692;23.312;2023-05-23T07:03:06;95019.59;;;24.10;54.71
11124;BME280;5616;42.692;23.312;2023-05-23T07:05:33;95022.97;;;25.92;51.15
11124;BME280;5616;42.692;23.312;2023-05-23T07:08:03;95017.53;;;26.89;47.23
11124;BME280;5616;42.692;23.312;2023-05-23T07:10:30;95014.72;;;27.78;44.55
11124;BME280;5616;42.692;23.312;2023-05-23T07:13:05;95016.69;;;28.78;41.96
11124;BME280;5616;42.692;23.312;2023-05-23T07:15:32;95010.22;;;30.14;39.37
11124;BME280;5616;42.692;23.312;2023-05-23T07:18:06;95008.50;;;31.36;36.59
11124;BME280;5616;42.692;23.312;2023-05-23T07:20:33;95005.84;;;31.53;36.52
11124;BME280;5616;42.692;23.312;2023-05-23T07:23:10;95002.84;;;32.15;34.15
11124;BME280;5616;42.692;23.312;2023-05-23T07:25:39;94998.78;;;32.93;32.56
11124;BME280;5616;42.692;23.312;2023-05-23T07:28:11;94999.06;;;33.58;32.32
11124;BME280;5616;42.692;23.312;2023-05-23T07:30:38;94993.59;;;33.46;32.52
11124;BME280;5616;42.692;23.312;2023-05-23T07:33:05;95001.03;;;34.48;30.42
11124;BME280;5616;42.692;23.312;2023-05-23T07:35:32;94996.22;;;35.50;28.86
11124;BME280;5616;42.692;23.312;2023-05-23T07:38:00;94998.69;;;35.55;28.20
11124;BME280;5616;42.692;23.312;2023-05-23T07:40:29;94997.06;;;35.14;29.18
11124;BME280;5616;42.692;23.312;2023-05-23T07:42:56;94999.63;;;34.62;29.33
11124;BME280;5616;42.692;23.312;2023-05-23T07:45:22;94992.34;;;34.63;29.04
11124;BME280;5616;42.692;23.312;2023-05-23T07:47:49;94994.06;;;35.16;28.69
11124;BME280;5616;42.692;23.312;2023-05-23T07:50:17;94990.66;;;35.98;27.05
11124;BME280;5616;42.692;23.312;2023-05-23T07:52:45;94987.22;;;36.26;27.61
11124;BME280;5616;42.692;23.312;2023-05-23T07:55:15;94989.09;;;36.25;27.16
11124;BME280;5616;42.692;23.312;2023-05-23T07:57:43;94992.59;;;35.98;27.55
11124;BME280;5616;42.692;23.312;2023-05-23T08:00:11;94979.91;;;35.98;27.53
11124;BME280;5616;42.692;23.312;2023-05-23T08:02:42;94983.50;;;37.08;26.87
11124;BME280;5616;42.692;23.312;2023-05-23T08:05:17;94980.63;;;37.01;26.15
11124;BME280;5616;42.692;23.312;2023-05-23T08:07:48;94982.09;;;37.14;26.43
11124;BME280;5616;42.692;23.312;2023-05-23T08:10:15;94971.06;;;36.26;27.60
11124;BME280;5616;42.692;23.312;2023-05-23T08:12:43;94974.09;;;37.18;26.95
11124;BME280;5616;42.692;23.312;2023-05-23T08:15:13;94979.34;;;37.46;26.30
11124;BME280;5616;42.692;23.312;2023-05-23T08:17:44;94976.47;;;36.88;25.99
11124;BME280;5616;42.692;23.312;2023-05-23T08:20:11;94982.47;;;36.82;26.10
11124;BME280;5616;42.692;23.312;2023-05-23T08:22:39;94971.09;;;35.98;28.76
11124;BME280;5616;42.692;23.312;2023-05-23T08:25:08;94976.47;;;35.98;28.22
11124;BME280;5616;42.692;23.312;2023-05-23T08:27:38;94974.13;;;36.40;28.02
11124;BME280;5616;42.692;23.312;2023-05-23T08:30:28;94973.72;;;36.69;28.19
11124;BME280;5616;42.692;23.312;2023-05-23T08:32:57;94975.94;;;36.83;26.79
11124;BME280;5616;42.692;23.312;2023-05-23T08:35:25;94971.97;;;35.22;28.40
11124;BME280;5616;42.692;23.312;2023-05-23T08:37:54;94969.13;;;34.79;30.41
11124;BME280;5616;42.692;23.312;2023-05-23T08:40:23;94965.34;;;34.35;29.90
11124;BME280;5616;42.692;23.312;2023-05-23T08:43:00;94962.63;;;34.68;30.03
11124;BME280;5616;42.692;23.312;2023-05-23T08:45:29;94957.09;;;35.37;29.24
11124;BME280;5616;42.692;23.312;2023-05-23T08:47:59;94962.75;;;35.47;28.80
11124;BME280;5616;42.692;23.312;2023-05-23T08:50:29;94954.69;;;35.59;29.10
11124;BME280;5616;42.692;23.312;2023-05-23T08:52:57;94961.28;;;34.86;30.59
11124;BME280;5616;42.692;23.312;2023-05-23T08:55:25;94957.34;;;34.95;29.53
11124;BME280;5616;42.692;23.312;2023-05-23T08:57:53;94959.59;;;34.45;29.76
11124;BME280;5616;42.692;23.312;2023-05-23T09:00:36;94953.03;;;34.10;31.41
11124;BME280;5616;42.692;23.312;2023-05-23T09:03:03;94949.56;;;34.66;29.47
11124;BME280;5616;42.692;23.312;2023-05-23T09:05:49;94936.53;;;35.04;29.10
11124;BME280;5616;42.692;23.312;2023-05-23T09:08:18;94948.22;;;34.84;29.71
11124;BME280;5616;42.692;23.312;2023-05-23T09:10:46;94942.38;;;35.07;29.84
11124;BME280;5616;42.692;23.312;2023-05-23T09:13:14;94943.91;;;34.23;31.13
11124;BME280;5616;42.692;23.312;2023-05-23T09:15:57;94942.81;;;34.36;28.00
11124;BME280;5616;42.692;23.312;2023-05-23T09:18:32;94941.63;;;33.68;30.23
11124;BME280;5616;42.692;23.312;2023-05-23T09:21:00;94941.44;;;31.80;30.93
11124;BME280;5616;42.692;23.312;2023-05-23T09:23:29;94933.00;;;31.44;33.94
11124;BME280;5616;42.692;23.312;2023-05-23T09:26:00;94928.72;;;32.32;32.22
11124;BME280;5616;42.692;23.312;2023-05-23T09:28:27;94931.25;;;31.14;33.99
11124;BME280;5616;42.692;23.312;2023-05-23T09:30:58;94939.78;;;30.28;31.93
11124;BME280;5616;42.692;23.312;2023-05-23T09:33:35;94935.75;;;29.34;35.83
11124;BME280;5616;42.692;23.312;2023-05-23T09:36:03;94925.69;;;28.00;35.48
11124;BME280;5616;42.692;23.312;2023-05-23T09:38:30;94931.31;;;27.15;38.63
11124;BME280;5616;42.692;23.312;2023-05-23T09:40:58;94921.56;;;26.49;37.63
11124;BME280;5616;42.692;23.312;2023-05-23T09:43:25;94931.56;;;26.34;39.06
11124;BME280;5616;42.692;23.312;2023-05-23T09:45:52;94916.78;;;25.03;42.07
11124;BME280;5616;42.692;23.312;2023-05-23T09:48:28;94925.81;;;25.35;41.73
11124;BME280;5616;42.692;23.312;2023-05-23T09:50:56;94911.09;;;25.24;46.07
11124;BME280;5616;42.692;23.312;2023-05-23T09:53:23;94912.88;;;24.95;46.68
11124;BME280;5616;42.692;23.312;2023-05-23T09:55:50;94914.69;;;25.05;42.04
11124;BME280;5616;42.692;23.312;2023-05-23T09:58:19;94911.59;;;24.87;43.72
11124;BME280;5616;42.692;23.312;2023-05-23T10:00:48;94906.06;;;24.89;41.35
11124;BME280;5616;42.692;23.312;2023-05-23T10:03:20;94912.16;;;24.84;41.21
11124;BME280;5616;42.692;23.312;2023-05-23T10:05:51;94906.06;;;24.89;41.45
11124;BME280;5616;42.692;23.312;2023-05-23T10:08:21;94904.94;;;24.95;43.39
11124;BME280;5616;42.692;23.312;2023-05-23T10:13:51;94903.19;;;24.80;38.61
11124;BME280;5616;42.692;23.312;2023-05-23T10:16:21;94911.47;;;24.59;39.95
11124;BME280;5616;42.692;23.312;2023-05-23T10:18:54;94903.63;;;24.44;39.11
11124;BME280;5616;42.692;23.312;2023-05-23T10:21:25;94901.00;;;24.39;42.48
11124;BME280;5616;42.692;23.312;2023-05-23T10:23:57;94893.88;;;24.44;42.85
11124;BME280;5616;42.692;23.312;2023-05-23T10:26:25;94899.94;;;24.40;38.83
11124;BME280;5616;42.692;23.312;2023-05-23T10:28:53;94882.63;;;24.13;40.73
11124;BME280;5616;42.692;23.312;2023-05-23T10:31:22;94895.03;;;24.18;41.16
11124;BME280;5616;42.692;23.312;2023-05-23T10:33:54;94892.34;;;24.28;39.97
11124;BME280;5616;42.692;23.312;2023-05-23T10:36:31;94896.03;;;24.27;41.65
11124;BME280;5616;42.692;23.312;2023-05-23T10:39:05;94889.22;;;24.06;38.09
11124;BME280;5616;42.692;23.312;2023-05-23T10:41:38;94880.09;;;23.78;41.61
11124;BME280;5616;42.692;23.312;2023-05-23T10:44:11;94885.25;;;24.18;39.10
11124;BME280;5616;42.692;23.312;2023-05-23T10:46:52;94883.53;;;24.48;40.61
11124;BME280;5616;42.692;23.312;2023-05-23T10:49:19;94880.44;;;24.36;37.92
11124;BME280;5616;42.692;23.312;2023-05-23T10:51:49;94880.06;;;24.57;37.46
11124;BME280;5616;42.692;23.312;2023-05-23T10:54:17;94878.03;;;24.44;37.22
11124;BME280;5616;42.692;23.312;2023-05-23T10:56:45;94873.63;;;24.24;37.06
11124;BME280;5616;42.692;23.312;2023-05-23T10:59:19;94872.81;;;24.29;38.66
11124;BME280;5616;42.692;23.312;2023-05-23T11:01:49;94865.53;;;23.96;38.20
11124;BME280;5616;42.692;23.312;2023-05-23T11:04:24;94878.06;;;24.29;40.94
11124;BME280;5616;42.692;23.312;2023-05-23T11:06:53;94873.56;;;24.34;35.81
11124;BME280;5616;42.692;23.312;2023-05-23T11:09:21;94865.13;;;24.38;40.01
11124;BME280;5616;42.692;23.312;2023-05-23T11:11:55;94860.59;;;24.43;36.44
11124;BME280;5616;42.692;23.312;2023-05-23T11:14:52;94869.06;;;24.40;39.00
11124;BME280;5616;42.692;23.312;2023-05-23T11:17:29;94860.09;;;24.41;42.67
11124;BME280;5616;42.692;23.312;2023-05-23T11:20:02;94852.03;;;24.61;39.28
11124;BME280;5616;42.692;23.312;2023-05-23T11:22:33;94863.81;;;24.35;36.92
11124;BME280;5616;42.692;23.312;2023-05-23T11:25:00;94852.38;;;24.55;36.94
11124;BME280;5616;42.692;23.312;2023-05-23T11:27:29;94842.28;;;24.62;36.32
11124;BME280;5616;42.692;23.312;2023-05-23T11:30:01;94851.28;;;24.56;37.38
11124;BME280;5616;42.692;23.312;2023-05-23T11:32:29;94852.97;;;24.37;37.57
11124;BME280;5616;42.692;23.312;2023-05-23T11:35:00;94854.78;;;24.46;36.99
11124;BME280;5616;42.692;23.312;2023-05-23T11:37:27;94837.16;;;24.31;39.72
11124;BME280;5616;42.692;23.312;2023-05-23T11:39:56;94837.63;;;24.44;38.61
11124;BME280;5616;42.692;23.312;2023-05-23T11:42:23;94839.38;;;24.58;37.18
11124;BME280;5616;42.692;23.312;2023-05-23T11:44:50;94836.41;;;24.70;36.45
11124;BME280;5616;42.692;23.312;2023-05-23T11:47:17;94837.69;;;24.77;35.87
11124;BME280;5616;42.692;23.312;2023-05-23T11:49:45;94832.69;;;24.76;35.67
11124;BME280;5616;42.692;23.312;2023-05-23T11:52:13;94837.13;;;24.85;36.97
11124;BME280;5616;42.692;23.312;2023-05-23T11:54:40;94832.06;;;24.94;36.79
11124;BME280;5616;42.692;23.312;2023-05-23T11:57:09;94835.47;;;25.00;36.29
11124;BME280;5616;42.692;23.312;2023-05-23T11:59:38;94824.91;;;24.94;40.79
11124;BME280;5616;42.692;23.312;2023-05-23T12:02:05;94831.50;;;24.53;40.22
11124;BME280;5616;42.692;23.312;2023-05-23T12:04:33;94827.09;;;24.44;39.27
11124;BME280;5616;42.692;23.312;2023-05-23T12:07:03;94828.13;;;24.43;38.88
11124;BME280;5616;42.692;23.312;2023-05-23T12:09:30;94822.38;;;24.36;39.83
11124;BME280;5616;42.692;23.312;2023-05-23T12:11:57;94812.47;;;24.56;38.59
11124;BME280;5616;42.692;23.312;2023-05-23T12:14:27;94811.06;;;24.69;37.86
11124;BME280;5616;42.692;23.312;2023-05-23T12:16:54;94811.66;;;24.61;38.20
11124;BME280;5616;42.692;23.312;2023-05-23T12:19:22;94820.69;;;24.55;38.70
11124;BME280;5616;42.692;23.312;2023-05-23T12:21:49;94799.72;;;24.68;36.55
11124;BME280;5616;42.692;23.312;2023-05-23T12:24:16;94796.34;;;25.02;36.52
11124;BME280;5616;42.692;23.312;2023-05-23T12:26:48;94793.72;;;24.97;35.00
11124;BME280;5616;42.692;23.312;2023-05-23T12:29:17;94787.16;;;25.23;36.75
11124;BME280;5616;42.692;23.312;2023-05-23T12:31:47;94783.16;;;25.25;37.22
11124;BME280;5616;42.692;23.312;2023-05-23T12:34:14;94794.81;;;25.53;36.21
11124;BME280;5616;42.692;23.312;2023-05-23T12:36:41;94784.53;;;25.51;35.93
11124;BME280;5616;42.692;23.312;2023-05-23T12:39:08;94775.06;;;25.40;35.78
11124;BME280;5616;42.692;23.312;2023-05-23T12:41:36;94777.38;;;25.23;36.02
11124;BME280;5616;42.692;23.312;2023-05-23T12:44:02;94778.63;;;25.02;37.09
11124;BME280;5616;42.692;23.312;2023-05-23T12:46:29;94779.56;;;24.82;36.96
11124;BME280;5616;42.692;23.312;2023-05-23T12:48:57;94784.16;;;24.67;35.36
11124;BME280;5616;42.692;23.312;2023-05-23T12:51:24;94788.31;;;24.34;36.74
11124;BME280;5616;42.692;23.312;2023-05-23T12:53:51;94771.13;;;24.42;36.59
11124;BME280;5616;42.692;23.312;2023-05-23T12:56:19;94775.19;;;24.63;33.97
11124;BME280;5616;42.692;23.312;2023-05-23T12:58:46;94774.38;;;24.67;33.96
11124;BME280;5616;42.692;23.312;2023-05-23T13:01:13;94768.56;;;24.70;33.36
11124;BME280;5616;42.692;23.312;2023-05-23T13:03:40;94754.41;;;24.90;33.26
11124;BME280;5616;42.692;23.312;2023-05-23T13:06:08;94759.00;;;24.79;33.23
11124;BME280;5616;42.692;23.312;2023-05-23T13:08:35;94752.66;;;24.80;33.60